createdAt,value
2018-09-26T00:00:01.284Z,75.96
2018-09-26T00:00:47.424Z,76.14
2018-09-26T00:01:34.696Z,75.22
2018-09-26T00:02:22.315Z,75.27
2018-09-26T00:03:06.446Z,74.15
2018-09-26T00:03:49.448Z,74.32
2018-09-26T00:04:32.367Z,74.20
2018-09-26T00:05:12.608Z,74.64
2018-09-26T00:05:51.811Z,73.34
2018-09-26T00:06:31.202Z,74.33
2018-09-26T00:07:10.689Z,74.02
2018-09-26T00:07:49.484Z,73.07
2018-09-26T00:08:33.053Z,73.26
2018-09-26T00:09:16.621Z,72.56
2018-09-26T00:09:55.845Z,72.09
2018-09-26T00:10:36.280Z,73.06
2018-09-26T00:11:22.878Z,73.03
2018-09-26T00:12:01.988Z,71.92
2018-09-26T00:12:40.621Z,71.87
2018-09-26T00:13:20.632Z,71.66
2018-09-26T00:14:00.625Z,71.62
2018-09-26T00:14:39.196Z,72.74
2018-09-26T00:15:18.207Z,72.02
2018-09-26T00:16:02.100Z,72.22
2018-09-26T00:16:46.515Z,71.98
2018-09-26T00:17:32.529Z,70.84
2018-09-26T00:18:23.482Z,71.33
2018-09-26T00:19:02.470Z,70.75
2018-09-26T00:19:41.370Z,70.89
2018-09-26T00:20:20.051Z,70.67
2018-09-26T00:20:59.929Z,70.81
2018-09-26T00:21:40.864Z,70.57
2018-09-26T00:22:20.420Z,70.48
2018-09-26T00:22:58.996Z,70.40
2018-09-26T00:23:39.348Z,70.83
2018-09-26T00:24:18.163Z,70.15
2018-09-26T00:25:00.070Z,70.32
2018-09-26T00:25:43.825Z,69.43
2018-09-26T00:26:22.484Z,70.00
2018-09-26T00:27:06.340Z,69.83
2018-09-26T00:27:45.009Z,69.72
2018-09-26T00:28:24.843Z,69.59
2018-09-26T00:29:07.031Z,69.11
2018-09-26T00:29:48.401Z,68.89
2018-09-26T00:30:27.792Z,69.09
2018-09-26T00:31:07.748Z,69.17
2018-09-26T00:31:47.658Z,69.15
2018-09-26T00:32:27.319Z,68.37
2018-09-26T00:33:07.767Z,68.26
2018-09-26T00:33:54.235Z,68.49
2018-09-26T00:34:33.928Z,68.03
2018-09-26T00:35:12.574Z,68.24
2018-09-26T00:35:51.191Z,68.00
2018-09-26T00:36:29.445Z,67.74
2018-09-26T00:37:07.694Z,67.75
2018-09-26T00:37:45.621Z,67.53
2018-09-26T00:38:23.714Z,67.13
2018-09-26T00:39:02.022Z,67.26
2018-09-26T00:39:40.006Z,67.05
2018-09-26T00:40:18.183Z,66.71
2018-09-26T00:40:56.228Z,66.89
2018-09-26T00:41:34.142Z,66.75
2018-09-26T00:42:12.071Z,66.35
2018-09-26T00:42:50.046Z,66.29
2018-09-26T00:43:28.166Z,66.08
2018-09-26T00:44:06.132Z,66.15
2018-09-26T00:44:44.159Z,66.38
2018-09-26T00:45:22.067Z,65.45
2018-09-26T00:46:00.103Z,65.75
2018-09-26T00:46:38.112Z,66.21
2018-09-26T00:47:15.994Z,65.73
2018-09-26T00:47:54.079Z,65.56
2018-09-26T00:48:32.182Z,65.61
2018-09-26T00:49:10.029Z,65.57
2018-09-26T00:49:48.885Z,65.22
2018-09-26T00:50:26.874Z,65.12
2018-09-26T00:51:05.666Z,65.31
2018-09-26T00:51:44.377Z,65.18
2018-09-26T00:52:22.157Z,64.71
2018-09-26T00:53:00.516Z,64.69
2018-09-26T00:53:38.717Z,64.56
2018-09-26T00:54:17.497Z,64.26
2018-09-26T00:54:55.473Z,64.44
2018-09-26T00:55:34.278Z,64.31
2018-09-26T00:56:12.169Z,64.11
2018-09-26T00:56:50.682Z,64.08
2018-09-26T00:57:28.657Z,64.39
2018-09-26T00:58:06.923Z,64.38
2018-09-26T00:58:44.927Z,64.85
2018-09-26T00:59:23.035Z,64.29
2018-09-26T01:00:01.005Z,63.84
2018-09-26T01:00:39.052Z,63.50
2018-09-26T01:01:17.017Z,63.21
2018-09-26T01:01:55.101Z,63.11
2018-09-26T01:02:32.866Z,62.87
2018-09-26T01:03:11.067Z,62.82
2018-09-26T01:03:49.365Z,63.01
2018-09-26T01:04:27.237Z,62.87
2018-09-26T01:05:05.260Z,62.86
2018-09-26T01:05:43.091Z,62.98
2018-09-26T01:06:22.331Z,62.77
2018-09-26T01:07:00.204Z,62.54
2018-09-26T01:07:38.141Z,62.41
2018-09-26T01:08:16.492Z,62.58
2018-09-26T01:08:54.331Z,62.38
2018-09-26T01:09:32.595Z,62.00
2018-09-26T01:10:10.447Z,61.90
2018-09-26T01:10:48.290Z,61.71
2018-09-26T01:11:26.594Z,60.92
2018-09-26T01:12:04.479Z,60.85
2018-09-26T01:12:42.490Z,61.59
2018-09-26T01:13:20.296Z,60.63
2018-09-26T01:13:58.313Z,60.97
2018-09-26T01:14:36.364Z,61.15
2018-09-26T01:15:14.241Z,61.30
2018-09-26T01:15:52.200Z,60.79
2018-09-26T01:16:32.061Z,61.65
2018-09-26T01:17:09.932Z,60.71
2018-09-26T01:17:47.704Z,59.83
2018-09-26T01:18:25.541Z,59.56
2018-09-26T01:19:03.597Z,59.76
2018-09-26T01:19:42.665Z,59.76
2018-09-26T01:20:20.614Z,59.21
2018-09-26T01:20:58.727Z,59.22
2018-09-26T01:21:36.706Z,59.05
2018-09-26T01:22:14.571Z,58.79
2018-09-26T01:22:55.962Z,59.26
2018-09-26T01:23:33.952Z,58.66
2018-09-26T01:24:11.957Z,59.18
2018-09-26T01:24:49.799Z,59.11
2018-09-26T01:25:27.577Z,59.36
2018-09-26T01:26:05.422Z,59.07
2018-09-26T01:26:43.434Z,58.46
2018-09-26T01:27:21.332Z,59.15
2018-09-26T01:27:59.225Z,58.81
2018-09-26T01:28:37.349Z,58.17
2018-09-26T01:29:15.166Z,58.64
2018-09-26T01:29:54.062Z,57.62
2018-09-26T01:30:31.874Z,58.10
2018-09-26T01:31:09.738Z,58.39
2018-09-26T01:31:48.007Z,57.63
2018-09-26T01:32:26.163Z,58.40
2018-09-26T01:33:04.238Z,57.20
2018-09-26T01:33:42.058Z,57.55
2018-09-26T01:34:19.966Z,56.79
2018-09-26T01:34:57.953Z,57.05
2018-09-26T01:35:35.754Z,56.49
2018-09-26T01:36:13.681Z,57.15
2018-09-26T01:36:51.502Z,56.80
2018-09-26T01:37:29.302Z,57.65
2018-09-26T01:38:07.418Z,57.22
2018-09-26T01:38:45.401Z,56.91
2018-09-26T01:39:23.335Z,56.57
2018-09-26T01:40:01.882Z,56.19
2018-09-26T01:40:39.714Z,56.22
2018-09-26T01:41:20.262Z,55.96
2018-09-26T01:41:58.297Z,56.73
2018-09-26T01:42:36.314Z,56.60
2018-09-26T01:43:14.214Z,55.80
2018-09-26T01:43:52.112Z,55.79
2018-09-26T01:44:30.066Z,56.20
2018-09-26T01:45:08.569Z,56.92
2018-09-26T01:45:46.387Z,56.30
2018-09-26T01:46:24.326Z,56.60
2018-09-26T01:47:02.420Z,55.97
2018-09-26T01:47:40.440Z,56.15
2018-09-26T01:48:19.280Z,56.66
2018-09-26T01:48:57.477Z,56.67
2018-09-26T01:49:36.177Z,56.89
2018-09-26T01:50:15.215Z,56.93
2018-09-26T01:50:53.050Z,56.59
2018-09-26T01:51:31.906Z,56.39
2018-09-26T01:52:09.967Z,56.57
2018-09-26T01:52:48.044Z,55.80
2018-09-26T01:53:25.888Z,56.11
2018-09-26T01:54:03.729Z,55.64
2018-09-26T01:54:41.772Z,55.35
2018-09-26T01:55:19.530Z,56.54
2018-09-26T01:55:57.321Z,56.14
2018-09-26T01:56:35.282Z,56.10
2018-09-26T01:57:13.203Z,56.22
2018-09-26T01:57:50.970Z,55.13
2018-09-26T01:58:28.869Z,55.17
2018-09-26T01:59:06.686Z,54.98
2018-09-26T01:59:44.697Z,55.83
2018-09-26T02:00:22.703Z,54.80
2018-09-26T02:01:00.749Z,55.59
2018-09-26T02:01:38.723Z,55.82
2018-09-26T02:02:16.581Z,55.58
2018-09-26T02:02:54.589Z,54.68
2018-09-26T02:03:32.380Z,54.65
2018-09-26T02:04:10.237Z,54.81
2018-09-26T02:04:48.065Z,54.58
2018-09-26T02:05:25.939Z,55.48
2018-09-26T02:06:04.922Z,54.68
2018-09-26T02:06:42.805Z,55.71
2018-09-26T02:07:20.858Z,54.66
2018-09-26T02:07:58.693Z,54.73
2018-09-26T02:08:36.717Z,55.44
2018-09-26T02:09:15.160Z,55.52
2018-09-26T02:09:53.186Z,55.37
2018-09-26T02:10:31.115Z,55.42
2018-09-26T02:11:08.943Z,54.68
2018-09-26T02:11:46.833Z,54.61
2018-09-26T02:12:24.922Z,55.12
2018-09-26T02:13:02.825Z,54.90
2018-09-26T02:13:40.704Z,54.63
2018-09-26T02:14:18.461Z,55.39
2018-09-26T02:14:56.498Z,55.07
2018-09-26T02:15:34.306Z,54.97
2018-09-26T02:16:12.475Z,54.47
2018-09-26T02:16:50.515Z,55.33
2018-09-26T02:17:28.386Z,54.48
2018-09-26T02:18:06.262Z,54.54
2018-09-26T02:18:44.452Z,55.28
2018-09-26T02:19:22.303Z,54.19
2018-09-26T02:20:00.150Z,55.01
2018-09-26T02:20:38.031Z,54.20
2018-09-26T02:21:15.959Z,54.91
2018-09-26T02:21:54.032Z,54.22
2018-09-26T02:22:31.894Z,54.19
2018-09-26T02:23:09.872Z,54.87
2018-09-26T02:23:47.897Z,54.52
2018-09-26T02:24:25.834Z,54.64
2018-09-26T02:25:03.896Z,54.29
2018-09-26T02:25:41.638Z,54.51
2018-09-26T02:26:19.538Z,54.30
2018-09-26T02:26:57.386Z,53.95
2018-09-26T02:27:35.246Z,53.51
2018-09-26T02:28:13.201Z,54.27
2018-09-26T02:28:51.035Z,53.65
2018-09-26T02:29:28.898Z,53.66
2018-09-26T02:30:07.819Z,54.32
2018-09-26T02:30:45.792Z,54.07
2018-09-26T02:31:23.745Z,53.68
2018-09-26T02:32:02.616Z,52.83
2018-09-26T02:32:40.535Z,53.75
2018-09-26T02:33:18.323Z,52.96
2018-09-26T02:33:56.432Z,53.11
2018-09-26T02:34:34.393Z,52.94
2018-09-26T02:35:12.286Z,53.26
2018-09-26T02:35:50.130Z,53.79
2018-09-26T02:36:28.368Z,52.81
2018-09-26T02:37:09.143Z,52.89
2018-09-26T02:37:47.021Z,52.43
2018-09-26T02:38:24.919Z,52.93
2018-09-26T02:39:03.255Z,53.27
2018-09-26T02:39:42.173Z,53.41
2018-09-26T02:40:20.104Z,52.75
2018-09-26T02:40:58.210Z,51.91
2018-09-26T02:41:37.459Z,51.71
2018-09-26T02:42:15.765Z,52.36
2018-09-26T02:42:54.124Z,51.73
2018-09-26T02:43:32.154Z,52.27
2018-09-26T02:44:10.605Z,52.45
2018-09-26T02:44:48.965Z,52.44
2018-09-26T02:45:26.972Z,52.26
2018-09-26T02:46:04.962Z,52.46
2018-09-26T02:46:43.030Z,52.24
2018-09-26T02:47:21.128Z,52.47
2018-09-26T02:47:59.080Z,52.20
2018-09-26T02:49:11.853Z,51.44
2018-09-26T02:49:49.896Z,51.29
2018-09-26T02:50:28.039Z,51.97
2018-09-26T02:51:07.108Z,51.81
2018-09-26T02:51:45.262Z,51.05
2018-09-26T02:52:23.357Z,51.07
2018-09-26T02:53:01.225Z,51.00
2018-09-26T02:53:39.015Z,50.95
2018-09-26T02:54:18.038Z,51.54
2018-09-26T02:54:55.960Z,50.82
2018-09-26T02:55:33.772Z,50.67
2018-09-26T02:56:11.841Z,51.24
2018-09-26T02:56:50.732Z,50.84
2018-09-26T02:57:28.596Z,51.48
2018-09-26T02:58:06.515Z,50.60
2018-09-26T02:58:44.475Z,51.41
2018-09-26T02:59:22.268Z,50.89
2018-09-26T03:00:00.137Z,50.31
2018-09-26T03:00:38.337Z,51.34
2018-09-26T03:01:16.409Z,50.12
2018-09-26T03:01:55.354Z,50.56
2018-09-26T03:02:33.350Z,50.64
2018-09-26T03:03:11.350Z,50.31
2018-09-26T03:03:49.427Z,49.74
2018-09-26T03:04:27.335Z,50.41
2018-09-26T03:05:06.205Z,51.01
2018-09-26T03:05:44.416Z,49.72
2018-09-26T03:06:22.252Z,50.11
2018-09-26T03:07:00.305Z,50.65
2018-09-26T03:07:38.213Z,50.65
2018-09-26T03:08:16.381Z,50.80
2018-09-26T03:08:55.473Z,50.04
2018-09-26T03:09:33.346Z,50.07
2018-09-26T03:10:11.127Z,50.29
2018-09-26T03:10:49.327Z,50.36
2018-09-26T03:11:27.294Z,50.43
2018-09-26T03:12:05.261Z,50.92
2018-09-26T03:12:43.101Z,51.22
2018-09-26T03:13:21.022Z,51.42
2018-09-26T03:13:58.869Z,50.69
2018-09-26T03:14:36.969Z,50.90
2018-09-26T03:15:14.928Z,51.15
2018-09-26T03:15:52.901Z,51.60
2018-09-26T03:16:30.800Z,50.41
2018-09-26T03:17:08.623Z,50.75
2018-09-26T03:17:46.520Z,50.32
2018-09-26T03:18:25.306Z,51.17
2018-09-26T03:19:03.170Z,50.05
2018-09-26T03:19:40.997Z,50.05
2018-09-26T03:20:18.902Z,49.86
2018-09-26T03:20:56.729Z,50.67
2018-09-26T03:21:34.561Z,50.14
2018-09-26T03:22:12.521Z,50.50
2018-09-26T03:22:51.535Z,50.45
2018-09-26T03:23:29.836Z,49.81
2018-09-26T03:24:07.852Z,50.76
2018-09-26T03:24:45.652Z,51.06
2018-09-26T03:25:23.676Z,50.41
2018-09-26T03:26:01.579Z,51.13
2018-09-26T03:26:39.497Z,50.92
2018-09-26T03:27:17.369Z,50.35
2018-09-26T03:27:55.359Z,50.22
2018-09-26T03:28:33.249Z,50.23
2018-09-26T03:29:11.402Z,50.65
2018-09-26T03:29:50.738Z,50.88
2018-09-26T03:30:28.590Z,50.09
2018-09-26T03:31:06.430Z,50.10
2018-09-26T03:31:44.343Z,50.46
2018-09-26T03:32:22.283Z,50.66
2018-09-26T03:33:00.134Z,50.00
2018-09-26T03:33:38.127Z,50.41
2018-09-26T03:34:16.903Z,49.59
2018-09-26T03:34:54.987Z,50.10
2018-09-26T03:35:32.857Z,49.49
2018-09-26T03:36:10.680Z,49.57
2018-09-26T03:36:48.675Z,49.88
2018-09-26T03:37:26.569Z,49.64
2018-09-26T03:38:04.600Z,48.88
2018-09-26T03:38:43.578Z,48.98
2018-09-26T03:39:21.573Z,48.40
2018-09-26T03:39:59.498Z,48.80
2018-09-26T03:40:37.331Z,48.09
2018-09-26T03:41:15.147Z,48.85
2018-09-26T03:41:53.261Z,48.44
2018-09-26T03:42:32.258Z,49.17
2018-09-26T03:43:10.511Z,49.10
2018-09-26T03:43:48.376Z,48.42
2018-09-26T03:44:26.263Z,48.97
2018-09-26T03:45:04.204Z,48.88
2018-09-26T03:45:42.205Z,49.04
2018-09-26T03:46:20.013Z,48.84
2018-09-26T03:46:57.961Z,48.24
2018-09-26T03:47:36.995Z,48.16
2018-09-26T03:48:15.002Z,48.68
2018-09-26T03:48:53.105Z,48.08
2018-09-26T03:49:31.218Z,48.66
2018-09-26T03:50:09.615Z,48.03
2018-09-26T03:50:47.672Z,47.81
2018-09-26T03:51:25.584Z,48.55
2018-09-26T03:52:04.485Z,48.85
2018-09-26T03:52:43.393Z,48.18
2018-09-26T03:53:22.420Z,48.32
2018-09-26T03:54:01.405Z,48.26
2018-09-26T03:54:39.154Z,48.04
2018-09-26T03:55:20.838Z,48.30
2018-09-26T03:55:59.496Z,47.66
2018-09-26T03:56:37.370Z,47.80
2018-09-26T03:57:15.261Z,48.50
2018-09-26T03:57:56.536Z,48.82
2018-09-26T03:58:34.331Z,48.21
2018-09-26T03:59:12.455Z,47.76
2018-09-26T03:59:50.261Z,47.79
2018-09-26T04:00:30.007Z,47.80
2018-09-26T04:01:08.105Z,48.14
2018-09-26T04:01:45.957Z,47.83
2018-09-26T04:02:23.840Z,48.14
2018-09-26T04:03:01.627Z,48.12
2018-09-26T04:03:40.316Z,48.47
2018-09-26T04:04:19.167Z,47.70
2018-09-26T04:04:58.010Z,47.77
2018-09-26T04:05:35.823Z,47.76
2018-09-26T04:06:13.689Z,48.36
2018-09-26T04:06:51.728Z,48.09
2018-09-26T04:07:29.554Z,47.81
2018-09-26T04:08:07.369Z,47.95
2018-09-26T04:08:45.385Z,48.34
2018-09-26T04:09:23.201Z,47.06
2018-09-26T04:10:01.377Z,47.26
2018-09-26T04:10:39.307Z,47.03
2018-09-26T04:11:17.441Z,47.00
2018-09-26T04:11:55.298Z,46.78
2018-09-26T04:12:33.989Z,47.11
2018-09-26T04:13:11.922Z,46.43
2018-09-26T04:13:49.862Z,47.13
2018-09-26T04:14:27.728Z,46.63
2018-09-26T04:15:05.703Z,46.46
2018-09-26T04:15:52.094Z,46.51
2018-09-26T04:16:29.984Z,46.30
2018-09-26T04:17:07.926Z,46.84
2018-09-26T04:17:46.014Z,47.79
2018-09-26T04:18:25.389Z,47.14
2018-09-26T04:19:03.514Z,46.53
2018-09-26T04:19:41.537Z,46.88
2018-09-26T04:20:19.367Z,46.97
2018-09-26T04:20:57.859Z,46.31
2018-09-26T04:21:35.723Z,46.75
2018-09-26T04:22:13.653Z,46.37
2018-09-26T04:22:52.393Z,45.96
2018-09-26T04:23:30.218Z,46.43
2018-09-26T04:24:08.239Z,46.32
2018-09-26T04:24:46.102Z,46.54
2018-09-26T04:25:24.101Z,46.00
2018-09-26T04:26:01.906Z,46.38
2018-09-26T04:26:40.143Z,46.04
2018-09-26T04:27:18.023Z,46.11
2018-09-26T04:27:56.003Z,45.88
2018-09-26T04:28:34.041Z,46.34
2018-09-26T04:29:11.935Z,45.60
2018-09-26T04:29:49.850Z,45.65
2018-09-26T04:30:27.918Z,45.83
2018-09-26T04:31:05.783Z,45.98
2018-09-26T04:31:43.604Z,46.36
2018-09-26T04:32:21.631Z,45.83
2018-09-26T04:32:59.612Z,46.09
2018-09-26T04:33:37.653Z,44.97
2018-09-26T04:34:17.602Z,44.96
2018-09-26T04:34:55.764Z,45.67
2018-09-26T04:35:33.685Z,44.88
2018-09-26T04:36:11.511Z,44.72
2018-09-26T04:36:49.454Z,44.86
2018-09-26T04:37:27.626Z,45.02
2018-09-26T04:38:05.488Z,44.86
2018-09-26T04:38:43.563Z,45.24
2018-09-26T04:39:21.491Z,44.98
2018-09-26T04:39:59.436Z,45.23
2018-09-26T04:40:38.117Z,45.58
2018-09-26T04:41:16.038Z,45.01
2018-09-26T04:41:53.992Z,44.94
2018-09-26T04:42:31.837Z,45.52
2018-09-26T04:43:09.896Z,45.00
2018-09-26T04:43:48.119Z,44.93
2018-09-26T04:44:25.977Z,44.82
2018-09-26T04:45:03.822Z,45.18
2018-09-26T04:45:41.740Z,45.21
2018-09-26T04:46:19.653Z,44.47
2018-09-26T04:46:57.474Z,44.20
2018-09-26T04:47:35.468Z,44.66
2018-09-26T04:48:13.284Z,44.25
2018-09-26T04:48:51.139Z,43.65
2018-09-26T04:49:29.004Z,44.20
2018-09-26T04:50:08.336Z,44.32
2018-09-26T04:50:46.237Z,43.39
2018-09-26T04:51:24.093Z,44.02
2018-09-26T04:52:02.285Z,43.88
2018-09-26T04:52:40.375Z,43.75
2018-09-26T04:53:18.404Z,43.62
2018-09-26T04:53:56.222Z,43.09
2018-09-26T04:54:34.208Z,43.64
2018-09-26T04:55:12.088Z,43.54
2018-09-26T04:55:50.004Z,43.85
2018-09-26T04:56:29.888Z,44.22
2018-09-26T04:57:07.679Z,44.52
2018-09-26T04:57:45.568Z,44.39
2018-09-26T04:58:23.594Z,44.25
2018-09-26T04:59:01.684Z,44.08
2018-09-26T04:59:39.554Z,43.77
2018-09-26T05:00:17.523Z,44.09
2018-09-26T05:00:55.336Z,43.91
2018-09-26T05:01:35.049Z,43.83
2018-09-26T05:02:12.836Z,44.36
2018-09-26T05:02:50.874Z,44.44
2018-09-26T05:03:28.710Z,43.96
2018-09-26T05:04:06.748Z,43.97
2018-09-26T05:04:44.591Z,44.25
2018-09-26T05:05:22.499Z,44.69
2018-09-26T05:06:01.287Z,44.39
2018-09-26T05:06:39.355Z,44.19
2018-09-26T05:07:18.408Z,44.52
2018-09-26T05:07:56.205Z,44.33
2018-09-26T05:08:34.336Z,43.33
2018-09-26T05:09:13.757Z,43.05
2018-09-26T05:09:51.843Z,42.68
2018-09-26T05:10:29.665Z,42.91
2018-09-26T05:11:07.550Z,42.29
2018-09-26T05:11:45.495Z,42.74
2018-09-26T05:12:23.356Z,42.49
2018-09-26T05:13:01.266Z,42.51
2018-09-26T05:13:39.373Z,43.50
2018-09-26T05:14:17.178Z,43.19
2018-09-26T05:14:55.167Z,43.70
2018-09-26T05:15:32.960Z,44.40
2018-09-26T05:16:10.809Z,44.50
2018-09-26T05:16:48.679Z,45.77
2018-09-26T05:17:26.571Z,45.47
2018-09-26T05:18:04.372Z,45.74
2018-09-26T05:18:43.289Z,46.75
2018-09-26T05:19:21.118Z,46.79
2018-09-26T05:19:59.242Z,46.69
2018-09-26T05:20:37.362Z,48.35
2018-09-26T05:21:15.488Z,48.90
2018-09-26T05:21:53.354Z,48.67
2018-09-26T05:22:31.290Z,47.42
2018-09-26T05:23:09.242Z,48.15
2018-09-26T05:23:47.346Z,48.61
2018-09-26T05:24:25.375Z,48.74
2018-09-26T05:25:03.498Z,49.55
2018-09-26T05:25:42.374Z,49.65
2018-09-26T05:26:20.484Z,49.49
2018-09-26T05:26:58.354Z,49.97
2018-09-26T05:27:36.250Z,49.42
2018-09-26T05:28:14.029Z,48.89
2018-09-26T05:28:51.828Z,48.99
2018-09-26T05:29:29.760Z,49.96
2018-09-26T05:30:07.739Z,49.97
2018-09-26T05:30:45.679Z,50.61
2018-09-26T05:31:23.561Z,50.55
2018-09-26T05:32:01.513Z,51.22
2018-09-26T05:32:40.762Z,50.91
2018-09-26T05:33:18.576Z,51.84
2018-09-26T05:33:56.506Z,52.09
2018-09-26T05:34:34.309Z,52.24
2018-09-26T05:35:12.395Z,52.40
2018-09-26T05:35:50.478Z,52.80
2018-09-26T05:36:28.590Z,52.00
2018-09-26T05:37:06.558Z,52.50
2018-09-26T05:37:44.384Z,52.35
2018-09-26T05:38:22.431Z,52.63
2018-09-26T05:39:00.293Z,52.56
2018-09-26T05:39:38.223Z,53.55
2018-09-26T05:40:17.268Z,52.92
2018-09-26T05:40:55.330Z,53.38
2018-09-26T05:41:39.014Z,53.94
2018-09-26T05:42:17.235Z,53.25
2018-09-26T05:42:55.193Z,54.29
2018-09-26T05:43:33.178Z,55.04
2018-09-26T05:44:12.072Z,54.58
2018-09-26T05:44:50.184Z,55.13
2018-09-26T05:45:28.076Z,55.37
2018-09-26T05:46:06.127Z,56.59
2018-09-26T05:46:44.321Z,55.87
2018-09-26T05:47:22.323Z,55.30
2018-09-26T05:48:00.167Z,56.57
2018-09-26T05:48:38.478Z,56.55
2018-09-26T05:49:16.404Z,55.90
2018-09-26T05:49:54.278Z,56.68
2018-09-26T05:50:32.147Z,56.62
2018-09-26T05:51:10.242Z,56.65
2018-09-26T05:51:48.009Z,57.05
2018-09-26T05:52:25.810Z,57.45
2018-09-26T05:53:03.790Z,57.33
2018-09-26T05:53:41.712Z,57.12
2018-09-26T05:54:19.709Z,57.43
2018-09-26T05:54:57.731Z,58.12
2018-09-26T05:55:35.858Z,58.61
2018-09-26T05:56:14.541Z,58.93
2018-09-26T05:56:52.813Z,58.58
2018-09-26T05:57:30.682Z,59.12
2018-09-26T05:58:08.557Z,58.63
2018-09-26T05:58:47.355Z,59.25
2018-09-26T05:59:25.281Z,59.51
2018-09-26T06:00:04.165Z,59.33
2018-09-26T06:00:43.272Z,59.06
2018-09-26T06:01:21.066Z,59.25
2018-09-26T06:01:58.906Z,60.32
2018-09-26T06:02:37.509Z,59.25
2018-09-26T06:03:15.664Z,60.40
2018-09-26T06:03:53.973Z,60.18
2018-09-26T06:04:31.828Z,59.76
2018-09-26T06:05:09.680Z,59.97
2018-09-26T06:05:47.608Z,59.55
2018-09-26T06:06:25.500Z,60.24
2018-09-26T06:07:03.376Z,59.69
2018-09-26T06:07:41.179Z,60.51
2018-09-26T06:08:19.130Z,60.43
2018-09-26T06:08:56.944Z,60.45
2018-09-26T06:09:34.833Z,60.85
2018-09-26T06:10:12.846Z,60.49
2018-09-26T06:10:50.778Z,60.71
2018-09-26T06:11:28.595Z,60.04
2018-09-26T06:12:12.358Z,60.77
2018-09-26T06:12:50.203Z,60.22
2018-09-26T06:13:28.138Z,61.30
2018-09-26T06:14:06.912Z,59.88
2018-09-26T06:14:44.917Z,61.38
2018-09-26T06:15:23.015Z,61.38
2018-09-26T06:16:01.814Z,60.67
2018-09-26T06:16:39.739Z,60.70
2018-09-26T06:17:17.709Z,62.28
2018-09-26T06:17:56.398Z,62.02
2018-09-26T06:18:34.303Z,64.57
2018-09-26T06:19:12.687Z,64.15
2018-09-26T06:19:50.541Z,65.37
2018-09-26T06:20:28.360Z,65.82
2018-09-26T06:21:06.355Z,66.49
2018-09-26T06:21:44.233Z,67.24
2018-09-26T06:22:22.146Z,68.37
2018-09-26T06:23:00.014Z,69.61
2018-09-26T06:23:37.866Z,70.26
2018-09-26T06:24:16.707Z,70.87
2018-09-26T06:24:54.483Z,71.42
2018-09-26T06:25:33.357Z,73.17
2018-09-26T06:26:11.329Z,73.33
2018-09-26T06:26:49.123Z,74.19
2018-09-26T06:27:27.043Z,74.93
2018-09-26T06:28:05.697Z,75.66
2018-09-26T06:28:43.574Z,76.18
2018-09-26T06:29:21.512Z,76.53
2018-09-26T06:29:59.316Z,76.46
2018-09-26T06:30:37.174Z,76.28
2018-09-26T06:31:15.001Z,76.79
2018-09-26T06:31:52.829Z,76.51
2018-09-26T06:32:30.669Z,76.47
2018-09-26T06:33:08.646Z,76.36
2018-09-26T06:33:46.498Z,76.30
2018-09-26T06:34:25.669Z,76.37
2018-09-26T06:35:03.629Z,76.31
2018-09-26T06:35:41.605Z,76.14
2018-09-26T06:36:19.440Z,75.93
2018-09-26T06:36:57.254Z,76.04
2018-09-26T06:37:35.138Z,76.08
2018-09-26T06:38:13.013Z,76.10
2018-09-26T06:38:50.882Z,76.03
2018-09-26T06:39:28.813Z,76.28
2018-09-26T06:40:08.272Z,76.09
2018-09-26T06:40:46.106Z,76.09
2018-09-26T06:41:24.097Z,76.34
2018-09-26T06:42:02.077Z,76.08
2018-09-26T06:42:39.872Z,75.52
2018-09-26T06:43:18.653Z,76.25
2018-09-26T06:43:56.654Z,76.22
2018-09-26T06:44:34.565Z,76.23
2018-09-26T06:45:12.619Z,76.44
2018-09-26T06:45:50.717Z,75.99
2018-09-26T06:46:28.654Z,74.32
2018-09-26T06:47:06.469Z,73.61
2018-09-26T06:47:44.301Z,73.37
2018-09-26T06:48:22.389Z,73.02
2018-09-26T06:49:00.514Z,72.50
2018-09-26T06:49:38.505Z,72.33
2018-09-26T06:50:16.981Z,70.82
2018-09-26T06:50:54.929Z,71.23
2018-09-26T06:51:32.763Z,70.33
2018-09-26T06:52:10.639Z,69.85
2018-09-26T06:52:48.583Z,69.66
2018-09-26T06:53:26.413Z,69.72
2018-09-26T06:54:05.146Z,69.94
2018-09-26T06:54:43.089Z,69.97
2018-09-26T06:55:20.980Z,69.41
2018-09-26T06:55:58.783Z,68.31
2018-09-26T06:56:36.588Z,67.35
2018-09-26T06:57:15.826Z,67.63
2018-09-26T06:57:53.721Z,67.69
2018-09-26T06:58:31.488Z,67.51
2018-09-26T06:59:09.733Z,67.10
2018-09-26T06:59:47.833Z,66.19
2018-09-26T07:00:25.810Z,65.24
2018-09-26T07:01:03.981Z,65.30
2018-09-26T07:01:41.965Z,65.19
2018-09-26T07:02:19.946Z,64.58
2018-09-26T07:02:58.218Z,63.56
2018-09-26T07:03:36.217Z,64.51
2018-09-26T07:04:14.074Z,63.92
2018-09-26T07:04:52.194Z,62.28
2018-09-26T07:05:30.101Z,62.66
2018-09-26T07:06:08.071Z,62.09
2018-09-26T07:06:45.873Z,62.60
2018-09-26T07:07:23.839Z,63.74
2018-09-26T07:08:01.692Z,63.81
2018-09-26T07:08:39.454Z,63.58
2018-09-26T07:09:17.613Z,62.04
2018-09-26T07:09:55.534Z,62.13
2018-09-26T07:10:33.530Z,61.14
2018-09-26T07:11:11.395Z,60.57
2018-09-26T07:11:49.474Z,59.87
2018-09-26T07:12:27.673Z,59.64
2018-09-26T07:13:05.487Z,58.37
2018-09-26T07:13:43.370Z,59.77
2018-09-26T07:14:21.321Z,59.65
2018-09-26T07:14:59.151Z,59.60
2018-09-26T07:15:43.954Z,60.08
2018-09-26T07:16:21.931Z,59.52
2018-09-26T07:16:59.816Z,58.97
2018-09-26T07:17:38.100Z,57.62
2018-09-26T07:18:16.560Z,57.57
2018-09-26T07:18:54.416Z,57.83
2018-09-26T07:19:32.608Z,58.47
2018-09-26T07:20:12.107Z,57.71
2018-09-26T07:20:50.015Z,57.60
2018-09-26T07:21:27.857Z,56.65
2018-09-26T07:22:05.673Z,57.61
2018-09-26T07:22:43.471Z,57.39
2018-09-26T07:23:21.806Z,56.53
2018-09-26T07:23:59.729Z,57.82
2018-09-26T07:24:38.079Z,57.44
2018-09-26T07:25:15.993Z,56.98
2018-09-26T07:25:54.162Z,57.00
2018-09-26T07:26:33.038Z,56.75
2018-09-26T07:27:10.856Z,55.72
2018-09-26T07:27:48.940Z,55.98
2018-09-26T07:28:27.013Z,56.53
2018-09-26T07:29:04.857Z,56.87
2018-09-26T07:29:42.842Z,56.22
2018-09-26T07:30:20.724Z,55.23
2018-09-26T07:30:59.384Z,55.34
2018-09-26T07:31:37.394Z,55.27
2018-09-26T07:32:16.832Z,55.50
2018-09-26T07:32:54.811Z,54.88
2018-09-26T07:33:32.704Z,55.97
2018-09-26T07:34:10.648Z,56.06
2018-09-26T07:34:48.497Z,55.78
2018-09-26T07:35:27.747Z,55.41
2018-09-26T07:36:05.626Z,55.87
2018-09-26T07:36:43.515Z,54.90
2018-09-26T07:37:22.275Z,54.70
2018-09-26T07:38:00.187Z,54.58
2018-09-26T07:38:39.326Z,54.96
2018-09-26T07:39:17.158Z,55.21
2018-09-26T07:39:55.121Z,55.58
2018-09-26T07:40:33.136Z,54.28
2018-09-26T07:41:11.135Z,54.83
2018-09-26T07:41:50.518Z,54.03
2018-09-26T07:42:28.400Z,54.02
2018-09-26T07:43:06.716Z,54.45
2018-09-26T07:43:44.697Z,53.88
2018-09-26T07:44:22.726Z,55.45
2018-09-26T07:45:01.599Z,54.48
2018-09-26T07:45:39.529Z,55.43
2018-09-26T07:46:17.503Z,55.27
2018-09-26T07:46:56.227Z,55.68
2018-09-26T07:47:35.091Z,55.94
2018-09-26T07:48:12.965Z,55.75
2018-09-26T07:48:50.799Z,56.37
2018-09-26T07:49:28.785Z,55.67
2018-09-26T07:50:07.478Z,55.58
2018-09-26T07:50:45.370Z,55.51
2018-09-26T07:51:23.312Z,55.84
2018-09-26T07:52:01.138Z,56.00
2018-09-26T07:52:39.218Z,56.07
2018-09-26T07:53:18.053Z,55.98
2018-09-26T07:53:55.969Z,56.19
2018-09-26T07:54:34.878Z,55.54
2018-09-26T07:55:12.855Z,56.19
2018-09-26T07:55:50.989Z,56.33
2018-09-26T07:56:28.949Z,55.22
2018-09-26T07:57:06.806Z,56.38
2018-09-26T07:57:44.771Z,55.87
2018-09-26T07:58:22.584Z,55.85
2018-09-26T07:59:00.570Z,56.22
2018-09-26T07:59:38.447Z,55.18
2018-09-26T08:00:16.954Z,54.94
2018-09-26T08:00:55.897Z,56.13
2018-09-26T08:01:33.860Z,56.49
2018-09-26T08:02:11.964Z,55.80
2018-09-26T08:02:49.809Z,56.97
2018-09-26T08:03:27.706Z,56.53
2018-09-26T08:04:05.794Z,56.75
2018-09-26T08:04:43.670Z,55.42
2018-09-26T08:05:22.354Z,55.61
2018-09-26T08:06:00.523Z,55.63
2018-09-26T08:06:38.421Z,56.10
2018-09-26T08:07:16.312Z,56.16
2018-09-26T08:07:54.197Z,56.95
2018-09-26T08:08:32.110Z,56.48
2018-09-26T08:09:11.954Z,56.44
2018-09-26T08:09:49.871Z,56.73
2018-09-26T08:10:27.695Z,55.96
2018-09-26T08:11:05.577Z,57.04
2018-09-26T08:11:43.532Z,57.13
2018-09-26T08:12:21.497Z,57.28
2018-09-26T08:12:59.421Z,56.57
2018-09-26T08:13:37.272Z,55.69
2018-09-26T08:14:15.086Z,55.76